Time;durP1;ratioP1;P1;durP2;ratioP2;P2;SDS_P1;SDS_P2;PMS_P1;PMS_P2;Temp;Humidity;BMP_temperature;BMP_pressure;BME280_temperature;BME280_humidity;BME280_pressure;Samples;Min_cycle;Max_cycle;Signal;HPM_P1;HPM_P2
2023/10/24 00:01:54;;;;;;;3.90;2.38;;;;;;;;;;4969672;28;20795;-64
2023/10/24 00:04:20;;;;;;;4.87;2.50;;;;;;;;;;4969673;28;20041;-63
2023/10/24 00:06:45;;;;;;;4.32;2.13;;;;;;;;;;4968065;28;20276;-64
2023/10/24 00:09:10;;;;;;;4.37;2.13;;;;;;;;;;4970134;28;21127;-63
2023/10/24 00:11:35;;;;;;;5.53;2.40;;;;;;;;;;4969722;28;21224;-63
2023/10/24 00:14:01;;;;;;;3.00;1.93;;;;;;;;;;4970524;28;21134;-63
2023/10/24 00:16:26;;;;;;;3.43;1.90;;;;;;;;;;4962423;28;21233;-64
2023/10/24 00:18:51;;;;;;;3.53;1.85;;;;;;;;;;4960755;28;21190;-63
2023/10/24 00:21:16;;;;;;;3.22;2.00;;;;;;;;;;4970216;28;20033;-64
2023/10/24 00:23:42;;;;;;;3.47;2.27;;;;;;;;;;4973511;28;20022;-63
2023/10/24 00:26:07;;;;;;;3.28;1.67;;;;;;;;;;4964880;28;20810;-63
2023/10/24 00:28:33;;;;;;;3.72;2.22;;;;;;;;;;4969197;28;20136;-62
2023/10/24 00:30:59;;;;;;;2.83;1.83;;;;;;;;;;4966132;28;20034;-66
2023/10/24 00:33:25;;;;;;;2.90;1.48;;;;;;;;;;4969373;28;20030;-63
2023/10/24 00:35:51;;;;;;;3.28;2.05;;;;;;;;;;4968677;28;20074;-65
2023/10/24 00:38:16;;;;;;;3.92;2.20;;;;;;;;;;4958070;28;20037;-63
2023/10/24 00:40:41;;;;;;;3.75;2.15;;;;;;;;;;4969355;28;20030;-63
2023/10/24 00:43:06;;;;;;;4.23;2.47;;;;;;;;;;4966308;28;20971;-64
2023/10/24 00:45:33;;;;;;;3.53;2.42;;;;;;;;;;4969441;28;20999;-63
2023/10/24 00:47:59;;;;;;;2.92;1.90;;;;;;;;;;4968577;28;20022;-63
2023/10/24 00:50:24;;;;;;;3.63;2.05;;;;;;;;;;4969308;28;20047;-63
2023/10/24 00:52:50;;;;;;;4.10;2.33;;;;;;;;;;4964928;28;20069;-63
2023/10/24 00:55:16;;;;;;;8.70;2.67;;;;;;;;;;4968935;28;20120;-63
2023/10/24 00:57:42;;;;;;;4.10;2.38;;;;;;;;;;4964745;28;20029;-63
2023/10/24 01:00:07;;;;;;;2.63;1.67;;;;;;;;;;4965351;28;20036;-63
2023/10/24 01:02:33;;;;;;;5.18;2.53;;;;;;;;;;4968751;28;20847;-63
2023/10/24 01:04:59;;;;;;;3.70;1.98;;;;;;;;;;4968795;28;20076;-64
2023/10/24 01:07:24;;;;;;;5.00;1.90;;;;;;;;;;4968606;28;20030;-64
2023/10/24 01:09:49;;;;;;;4.20;2.03;;;;;;;;;;4968845;28;20022;-64
2023/10/24 01:12:15;;;;;;;4.00;2.17;;;;;;;;;;4968583;28;20272;-64
2023/10/24 01:14:40;;;;;;;2.70;1.60;;;;;;;;;;4967343;28;20266;-64
2023/10/24 01:17:12;;;;;;;2.25;1.30;;;;;;;;;;4968650;28;20285;-64
2023/10/24 01:19:37;;;;;;;3.45;1.55;;;;;;;;;;4968737;28;20030;-64
2023/10/24 01:22:02;;;;;;;3.83;1.77;;;;;;;;;;4969090;28;20026;-64
2023/10/24 01:24:28;;;;;;;4.80;1.70;;;;;;;;;;4969310;28;20855;-64
2023/10/24 01:26:55;;;;;;;2.97;1.70;;;;;;;;;;4960339;28;20720;-65
2023/10/24 01:29:20;;;;;;;3.35;1.90;;;;;;;;;;4969161;28;20025;-65
2023/10/24 01:31:45;;;;;;;2.80;1.73;;;;;;;;;;4959508;28;20169;-64
2023/10/24 01:34:10;;;;;;;4.07;2.13;;;;;;;;;;4966315;28;20871;-64
2023/10/24 01:36:36;;;;;;;3.53;1.60;;;;;;;;;;4968979;28;21204;-64
2023/10/24 01:39:01;;;;;;;4.88;1.95;;;;;;;;;;4969777;28;21293;-64
2023/10/24 01:41:26;;;;;;;3.28;1.73;;;;;;;;;;4969756;28;20088;-64
2023/10/24 01:43:52;;;;;;;4.47;1.67;;;;;;;;;;4968335;28;20910;-64
2023/10/24 01:46:17;;;;;;;3.22;1.75;;;;;;;;;;4970444;28;20026;-64
2023/10/24 01:48:42;;;;;;;4.32;2.05;;;;;;;;;;4970472;28;20022;-64
2023/10/24 01:51:07;;;;;;;4.13;1.73;;;;;;;;;;4964514;28;20026;-64
2023/10/24 01:53:33;;;;;;;3.33;1.67;;;;;;;;;;4963430;28;20277;-64
2023/10/24 01:55:58;;;;;;;3.93;1.67;;;;;;;;;;4969034;28;20784;-64
2023/10/24 01:58:23;;;;;;;3.58;1.90;;;;;;;;;;4971403;28;21098;-64
2023/10/24 02:00:48;;;;;;;2.33;1.37;;;;;;;;;;4968634;28;20044;-64
2023/10/24 02:03:14;;;;;;;5.03;1.98;;;;;;;;;;4954918;28;20288;-64
2023/10/24 02:05:39;;;;;;;13.27;2.13;;;;;;;;;;4954848;28;20030;-64
2023/10/24 02:08:04;;;;;;;3.45;1.67;;;;;;;;;;4968919;28;20033;-64
2023/10/24 02:10:29;;;;;;;3.55;1.98;;;;;;;;;;4967666;28;20932;-64
2023/10/24 02:12:55;;;;;;;3.70;1.70;;;;;;;;;;4969891;28;20407;-64
2023/10/24 02:15:20;;;;;;;5.43;1.85;;;;;;;;;;4967852;28;20273;-64
2023/10/24 02:17:45;;;;;;;4.87;1.80;;;;;;;;;;4967261;28;20856;-63
2023/10/24 02:20:10;;;;;;;3.17;1.65;;;;;;;;;;4966319;28;21253;-65
2023/10/24 02:22:36;;;;;;;3.47;1.88;;;;;;;;;;4969111;28;20084;-65
2023/10/24 02:25:01;;;;;;;3.20;1.70;;;;;;;;;;4967677;28;20130;-64
2023/10/24 02:27:27;;;;;;;3.00;1.80;;;;;;;;;;4971839;28;20280;-65
2023/10/24 02:29:52;;;;;;;5.07;1.90;;;;;;;;;;4971441;28;20269;-64
2023/10/24 02:32:17;;;;;;;2.75;1.55;;;;;;;;;;4970116;28;20037;-64
2023/10/24 02:34:46;;;;;;;3.50;1.87;;;;;;;;;;4971349;28;20026;-64
2023/10/24 02:37:11;;;;;;;4.88;1.88;;;;;;;;;;4971345;28;20295;-64
2023/10/24 02:39:37;;;;;;;3.35;1.90;;;;;;;;;;4970513;28;20038;-64
2023/10/24 02:42:02;;;;;;;3.65;2.25;;;;;;;;;;4970505;28;20041;-64
2023/10/24 02:44:28;;;;;;;4.07;1.80;;;;;;;;;;4971109;28;20041;-64
2023/10/24 02:46:53;;;;;;;3.30;2.00;;;;;;;;;;4971202;28;20837;-65
2023/10/24 02:49:18;;;;;;;3.85;2.17;;;;;;;;;;4970972;28;20867;-64
2023/10/24 02:51:44;;;;;;;4.20;2.33;;;;;;;;;;4972220;28;20895;-64
2023/10/24 02:54:09;;;;;;;4.82;2.40;;;;;;;;;;4972166;28;21062;-64
2023/10/24 02:56:35;;;;;;;5.55;3.00;;;;;;;;;;4971734;28;20866;-64
2023/10/24 02:59:00;;;;;;;5.07;2.97;;;;;;;;;;4967066;28;20918;-65
2023/10/24 03:01:25;;;;;;;4.47;2.40;;;;;;;;;;4970259;28;20022;-64
2023/10/24 03:03:51;;;;;;;4.90;2.92;;;;;;;;;;4970561;28;20277;-64
2023/10/24 03:06:17;;;;;;;5.72;3.50;;;;;;;;;;4962832;28;20026;-64
2023/10/24 03:08:43;;;;;;;4.60;3.03;;;;;;;;;;4971461;28;20037;-64
2023/10/24 03:11:08;;;;;;;6.43;3.33;;;;;;;;;;4970657;28;20025;-64
2023/10/24 03:13:34;;;;;;;4.70;3.00;;;;;;;;;;4973604;28;20029;-64
2023/10/24 03:16:05;;;;;;;7.15;3.67;;;;;;;;;;4970062;28;20786;-64
2023/10/24 03:18:31;;;;;;;7.03;4.05;;;;;;;;;;4971241;28;20096;-64
2023/10/24 03:20:56;;;;;;;5.50;3.67;;;;;;;;;;4972657;28;20034;-64
2023/10/24 03:23:22;;;;;;;8.43;4.18;;;;;;;;;;4973463;28;20025;-64
2023/10/24 03:25:47;;;;;;;6.50;4.22;;;;;;;;;;4972378;28;20825;-64
2023/10/24 03:28:14;;;;;;;5.77;3.77;;;;;;;;;;4970786;28;20024;-64
2023/10/24 03:30:39;;;;;;;8.13;4.60;;;;;;;;;;4973156;28;20336;-64
2023/10/24 03:33:04;;;;;;;8.23;4.60;;;;;;;;;;4968303;28;20026;-64
2023/10/24 03:35:32;;;;;;;10.93;4.80;;;;;;;;;;4968069;28;20919;-64
2023/10/24 03:37:57;;;;;;;7.50;5.10;;;;;;;;;;4970340;28;20029;-64
2023/10/24 03:40:26;;;;;;;7.72;4.60;;;;;;;;;;4970469;28;20439;-66
2023/10/24 03:42:51;;;;;;;6.30;4.35;;;;;;;;;;4963227;28;20125;-67
2023/10/24 03:45:17;;;;;;;6.33;4.67;;;;;;;;;;4971249;28;20839;-65
2023/10/24 03:47:42;;;;;;;7.13;4.30;;;;;;;;;;4970026;28;21343;-66
2023/10/24 03:50:07;;;;;;;7.18;4.70;;;;;;;;;;4969812;28;21050;-66
2023/10/24 03:52:32;;;;;;;5.53;3.80;;;;;;;;;;4963122;28;20019;-67
2023/10/24 03:54:59;;;;;;;5.47;4.15;;;;;;;;;;4970663;28;20084;-64
2023/10/24 03:57:24;;;;;;;6.43;4.85;;;;;;;;;;4971834;28;20030;-64
2023/10/24 03:59:49;;;;;;;6.50;4.40;;;;;;;;;;4969582;28;20072;-64
2023/10/24 04:02:15;;;;;;;6.47;4.47;;;;;;;;;;4970561;28;20281;-64
2023/10/24 04:04:40;;;;;;;6.20;3.83;;;;;;;;;;4967240;28;20277;-64
2023/10/24 04:07:05;;;;;;;9.15;4.32;;;;;;;;;;4970675;28;20273;-65
2023/10/24 04:09:31;;;;;;;6.55;4.07;;;;;;;;;;4970604;28;20524;-64
2023/10/24 04:11:56;;;;;;;6.50;4.60;;;;;;;;;;4970067;28;20128;-64
2023/10/24 04:14:22;;;;;;;9.05;4.03;;;;;;;;;;4969425;28;20902;-64
2023/10/24 04:16:47;;;;;;;6.47;4.20;;;;;;;;;;4961057;28;20029;-64
2023/10/24 04:19:12;;;;;;;8.70;4.68;;;;;;;;;;4970078;28;20760;-64
2023/10/24 04:21:37;;;;;;;7.00;4.22;;;;;;;;;;4961468;28;20056;-65
2023/10/24 04:24:03;;;;;;;7.18;4.88;;;;;;;;;;4962222;28;20826;-65
2023/10/24 04:26:28;;;;;;;7.75;4.88;;;;;;;;;;4969494;28;20010;-65
2023/10/24 04:28:55;;;;;;;7.17;4.33;;;;;;;;;;4963109;28;20050;-65
2023/10/24 04:31:20;;;;;;;6.13;4.35;;;;;;;;;;4965732;28;20563;-64
2023/10/24 04:33:46;;;;;;;7.27;4.97;;;;;;;;;;4968860;28;20551;-65
2023/10/24 04:36:11;;;;;;;6.50;4.55;;;;;;;;;;4969382;28;21091;-64
2023/10/24 04:38:36;;;;;;;6.25;3.90;;;;;;;;;;4958077;28;20562;-64
2023/10/24 04:41:02;;;;;;;6.43;4.00;;;;;;;;;;4969223;28;20036;-64
2023/10/24 04:43:27;;;;;;;5.18;3.80;;;;;;;;;;4970356;28;20127;-66
2023/10/24 04:45:52;;;;;;;5.95;3.38;;;;;;;;;;4970006;28;20132;-64
2023/10/24 04:48:17;;;;;;;5.77;3.47;;;;;;;;;;4968690;28;20041;-64
2023/10/24 04:50:43;;;;;;;4.93;3.03;;;;;;;;;;4968795;28;20256;-64
2023/10/24 04:53:08;;;;;;;4.53;2.90;;;;;;;;;;4961873;28;20892;-64
2023/10/24 04:55:33;;;;;;;4.95;2.95;;;;;;;;;;4962060;28;21160;-64
2023/10/24 04:57:59;;;;;;;4.57;3.00;;;;;;;;;;4960868;28;20025;-65
2023/10/24 05:00:24;;;;;;;3.97;2.33;;;;;;;;;;4969045;28;20788;-64
2023/10/24 05:02:50;;;;;;;4.78;2.88;;;;;;;;;;4969998;28;20991;-64
2023/10/24 05:05:16;;;;;;;5.78;2.67;;;;;;;;;;4969702;28;20420;-64
2023/10/24 05:07:41;;;;;;;4.15;2.70;;;;;;;;;;4970822;28;20033;-64
2023/10/24 05:10:06;;;;;;;4.18;2.53;;;;;;;;;;4964567;28;20368;-64
2023/10/24 05:12:32;;;;;;;5.82;2.50;;;;;;;;;;4970959;28;20183;-66
2023/10/24 05:14:57;;;;;;;6.38;3.00;;;;;;;;;;4968802;28;20030;-66
2023/10/24 05:17:22;;;;;;;5.35;3.03;;;;;;;;;;4968453;28;20026;-66
2023/10/24 05:19:47;;;;;;;6.63;2.77;;;;;;;;;;4970666;28;20057;-66
2023/10/24 05:22:14;;;;;;;5.10;2.70;;;;;;;;;;4968164;28;20273;-65
2023/10/24 05:24:39;;;;;;;4.88;3.22;;;;;;;;;;4970035;28;20026;-65
2023/10/24 05:27:05;;;;;;;5.40;3.03;;;;;;;;;;4968791;28;20124;-65
2023/10/24 05:29:33;;;;;;;6.82;3.63;;;;;;;;;;4959079;28;20765;-65
2023/10/24 05:31:59;;;;;;;5.30;3.17;;;;;;;;;;4968638;28;20030;-65
2023/10/24 05:34:30;;;;;;;3.75;2.80;;;;;;;;;;4967825;28;20024;-65
2023/10/24 05:36:56;;;;;;;5.03;3.25;;;;;;;;;;4966891;28;20065;-65
2023/10/24 05:39:21;;;;;;;4.70;3.10;;;;;;;;;;4968918;28;20128;-65
2023/10/24 05:41:47;;;;;;;7.95;3.38;;;;;;;;;;4968601;28;20026;-65
2023/10/24 05:44:12;;;;;;;5.40;3.45;;;;;;;;;;4957852;28;20062;-65
2023/10/24 05:46:38;;;;;;;8.73;3.95;;;;;;;;;;4969148;28;20029;-65
2023/10/24 05:49:03;;;;;;;6.45;3.78;;;;;;;;;;4969043;28;20848;-65
2023/10/24 05:51:29;;;;;;;5.47;3.15;;;;;;;;;;4968651;28;20815;-65
2023/10/24 05:53:54;;;;;;;5.65;4.22;;;;;;;;;;4963846;28;20865;-65
2023/10/24 05:56:20;;;;;;;5.93;4.15;;;;;;;;;;4966757;28;20014;-65
2023/10/24 05:58:45;;;;;;;6.25;3.38;;;;;;;;;;4963928;28;20070;-65
2023/10/24 06:01:11;;;;;;;4.70;3.10;;;;;;;;;;4969610;28;20048;-65
2023/10/24 06:03:36;;;;;;;4.63;2.60;;;;;;;;;;4973027;28;20026;-64
2023/10/24 06:06:01;;;;;;;7.63;3.15;;;;;;;;;;4965786;28;20897;-65
2023/10/24 06:08:26;;;;;;;6.22;3.20;;;;;;;;;;4971799;28;20026;-65
2023/10/24 06:10:58;;;;;;;4.32;2.75;;;;;;;;;;4971805;28;20030;-65
2023/10/24 06:13:24;;;;;;;4.25;3.03;;;;;;;;;;4970638;28;20026;-64
2023/10/24 06:15:49;;;;;;;5.15;3.80;;;;;;;;;;4971374;28;20041;-64
2023/10/24 06:18:15;;;;;;;7.50;4.03;;;;;;;;;;4971613;28;20049;-64
2023/10/24 06:20:40;;;;;;;5.47;3.35;;;;;;;;;;4973897;28;20045;-64
2023/10/24 06:23:06;;;;;;;6.22;4.13;;;;;;;;;;4971653;28;20029;-65
2023/10/24 06:25:38;;;;;;;5.35;3.70;;;;;;;;;;4964275;28;20576;-65
2023/10/24 06:28:03;;;;;;;5.85;3.90;;;;;;;;;;4971389;28;20085;-64
2023/10/24 06:30:29;;;;;;;8.43;3.55;;;;;;;;;;4963759;28;20851;-64
2023/10/24 06:32:55;;;;;;;7.43;4.13;;;;;;;;;;4971112;28;20993;-64
2023/10/24 06:35:20;;;;;;;5.57;3.55;;;;;;;;;;4972606;28;20022;-65
2023/10/24 06:37:45;;;;;;;5.40;3.13;;;;;;;;;;4963055;28;20145;-64
2023/10/24 06:40:11;;;;;;;4.97;3.35;;;;;;;;;;4972332;28;20297;-64
2023/10/24 06:42:36;;;;;;;4.75;3.45;;;;;;;;;;4972784;28;20044;-65
2023/10/24 06:45:01;;;;;;;6.50;3.57;;;;;;;;;;4973269;28;20053;-64
2023/10/24 06:47:27;;;;;;;6.22;3.95;;;;;;;;;;4960894;28;20284;-64
2023/10/24 06:49:52;;;;;;;5.72;3.38;;;;;;;;;;4971930;28;20022;-64
2023/10/24 06:52:17;;;;;;;5.25;3.03;;;;;;;;;;4961058;28;20987;-64
2023/10/24 06:54:42;;;;;;;4.77;3.37;;;;;;;;;;4966960;28;20033;-65
2023/10/24 06:57:08;;;;;;;4.13;2.40;;;;;;;;;;4964732;28;20308;-64
2023/10/24 06:59:33;;;;;;;4.77;2.93;;;;;;;;;;4971488;28;20045;-64
2023/10/24 07:01:58;;;;;;;4.27;3.03;;;;;;;;;;4971462;28;20276;-65
2023/10/24 07:04:23;;;;;;;3.87;2.50;;;;;;;;;;4970215;28;20301;-64
2023/10/24 07:06:48;;;;;;;4.47;3.30;;;;;;;;;;4972467;28;20264;-64
2023/10/24 07:09:14;;;;;;;3.77;2.57;;;;;;;;;;4972190;28;20273;-65
2023/10/24 07:11:39;;;;;;;3.85;2.75;;;;;;;;;;4968547;28;20269;-65
2023/10/24 07:14:04;;;;;;;4.35;2.53;;;;;;;;;;4970747;28;20030;-64
2023/10/24 07:16:30;;;;;;;4.07;2.73;;;;;;;;;;4974382;28;20090;-64
2023/10/24 07:18:55;;;;;;;4.63;2.50;;;;;;;;;;4973082;28;20843;-64
2023/10/24 07:21:20;;;;;;;4.23;2.40;;;;;;;;;;4971819;28;20583;-64
2023/10/24 07:23:45;;;;;;;5.82;2.70;;;;;;;;;;4973318;28;21156;-65
2023/10/24 07:26:11;;;;;;;4.43;2.30;;;;;;;;;;4967857;28;20034;-65
2023/10/24 07:28:36;;;;;;;5.93;2.10;;;;;;;;;;4971197;28;20036;-64
2023/10/24 07:31:02;;;;;;;3.85;2.05;;;;;;;;;;4971659;28;20022;-64
2023/10/24 07:33:27;;;;;;;3.17;1.90;;;;;;;;;;4971868;28;20022;-64
2023/10/24 07:35:52;;;;;;;3.00;1.75;;;;;;;;;;4968850;28;20022;-64
2023/10/24 07:38:18;;;;;;;2.92;1.83;;;;;;;;;;4959911;28;20022;-64
2023/10/24 07:40:44;;;;;;;4.85;1.35;;;;;;;;;;4977452;28;20067;-64
2023/10/24 07:43:09;;;;;;;3.45;1.38;;;;;;;;;;4971320;28;20021;-64
2023/10/24 07:45:34;;;;;;;3.42;1.80;;;;;;;;;;4971586;28;20977;-64
2023/10/24 07:48:00;;;;;;;4.00;1.75;;;;;;;;;;4979977;28;20031;-65
2023/10/24 07:50:28;;;;;;;4.50;2.03;;;;;;;;;;4971320;28;20030;-64
2023/10/24 07:52:53;;;;;;;4.07;2.00;;;;;;;;;;4971473;28;20797;-64
2023/10/24 07:55:18;;;;;;;2.97;1.50;;;;;;;;;;4968844;28;20053;-64
2023/10/24 07:57:43;;;;;;;2.25;1.23;;;;;;;;;;4966066;28;20820;-64
2023/10/24 08:00:09;;;;;;;2.63;1.20;;;;;;;;;;4970332;28;20189;-64
2023/10/24 08:02:34;;;;;;;2.55;1.35;;;;;;;;;;4969398;28;20283;-64
2023/10/24 08:04:59;;;;;;;2.37;1.27;;;;;;;;;;4971014;28;20107;-64
2023/10/24 08:07:25;;;;;;;2.40;1.23;;;;;;;;;;4970112;28;20447;-64
2023/10/24 08:09:50;;;;;;;3.60;1.33;;;;;;;;;;4969919;28;20272;-64
2023/10/24 08:12:16;;;;;;;3.08;1.60;;;;;;;;;;4969515;28;20852;-64
2023/10/24 08:14:41;;;;;;;2.95;1.30;;;;;;;;;;4969968;28;20132;-64
2023/10/24 08:17:06;;;;;;;3.65;1.50;;;;;;;;;;4970137;28;20033;-64
2023/10/24 08:19:31;;;;;;;2.10;1.00;;;;;;;;;;4968993;28;20058;-64
2023/10/24 08:21:57;;;;;;;2.90;1.25;;;;;;;;;;4969053;28;21019;-63
2023/10/24 08:24:23;;;;;;;2.97;1.60;;;;;;;;;;4968215;28;20030;-64
2023/10/24 08:26:48;;;;;;;2.55;1.50;;;;;;;;;;4969124;28;20034;-64
2023/10/24 08:29:13;;;;;;;4.15;1.35;;;;;;;;;;4970446;28;20032;-64
2023/10/24 08:31:39;;;;;;;3.08;1.42;;;;;;;;;;4965986;28;20918;-64
2023/10/24 08:34:04;;;;;;;4.63;1.75;;;;;;;;;;4967160;28;20026;-64
2023/10/24 08:36:29;;;;;;;2.53;1.65;;;;;;;;;;4967941;28;20014;-64
2023/10/24 08:38:54;;;;;;;3.37;1.60;;;;;;;;;;4971418;28;20026;-64
2023/10/24 08:41:22;;;;;;;3.43;1.63;;;;;;;;;;4975622;28;20371;-64
2023/10/24 08:43:48;;;;;;;3.25;1.58;;;;;;;;;;4978921;28;20304;-64
2023/10/24 08:46:13;;;;;;;3.22;1.73;;;;;;;;;;4970812;28;20893;-63
2023/10/24 08:48:39;;;;;;;4.32;2.03;;;;;;;;;;4969521;28;20094;-63
2023/10/24 08:51:04;;;;;;;3.85;1.70;;;;;;;;;;4969726;28;20033;-63
2023/10/24 08:53:30;;;;;;;3.42;1.65;;;;;;;;;;4969788;28;20079;-64
2023/10/24 08:55:57;;;;;;;2.47;1.45;;;;;;;;;;4968349;28;20884;-63
2023/10/24 08:58:23;;;;;;;3.97;2.35;;;;;;;;;;4954760;28;20030;-63
2023/10/24 09:00:49;;;;;;;3.30;1.88;;;;;;;;;;4963488;28;20036;-63
2023/10/24 09:03:17;;;;;;;2.72;1.58;;;;;;;;;;4968484;28;20145;-63
2023/10/24 09:05:44;;;;;;;2.85;1.50;;;;;;;;;;4968065;28;20120;-64
2023/10/24 09:08:09;;;;;;;4.22;1.83;;;;;;;;;;4968126;28;20033;-63
2023/10/24 09:10:34;;;;;;;2.88;1.70;;;;;;;;;;4974030;28;20021;-63
2023/10/24 09:13:02;;;;;;;3.30;1.77;;;;;;;;;;4971759;28;20899;-63
2023/10/24 09:15:28;;;;;;;5.28;1.65;;;;;;;;;;4968891;28;20917;-64
2023/10/24 09:17:55;;;;;;;2.85;1.40;;;;;;;;;;4969172;28;20029;-64
2023/10/24 09:20:21;;;;;;;5.95;2.03;;;;;;;;;;4968537;28;20522;-63
2023/10/24 09:22:46;;;;;;;2.55;1.42;;;;;;;;;;4967718;28;20028;-64
2023/10/24 09:25:13;;;;;;;2.20;1.25;;;;;;;;;;4968052;28;20149;-64
2023/10/24 09:27:39;;;;;;;2.53;1.15;;;;;;;;;;4966440;28;20425;-63
2023/10/24 09:30:13;;;;;;;2.10;1.13;;;;;;;;;;4967689;28;20018;-64
2023/10/24 09:32:40;;;;;;;2.75;1.30;;;;;;;;;;4969572;28;20278;-63
2023/10/24 09:35:06;;;;;;;2.50;1.15;;;;;;;;;;4975312;28;20087;-64
2023/10/24 09:37:31;;;;;;;4.03;1.48;;;;;;;;;;4980394;28;20038;-64
2023/10/24 09:39:57;;;;;;;2.40;1.20;;;;;;;;;;5006844;28;20038;-64
2023/10/24 09:42:24;;;;;;;3.10;1.60;;;;;;;;;;4990713;28;20036;-64
2023/10/24 09:44:51;;;;;;;2.95;1.40;;;;;;;;;;4985427;28;20030;-64
2023/10/24 09:47:16;;;;;;;3.88;1.65;;;;;;;;;;4985402;28;20022;-64
2023/10/24 09:49:42;;;;;;;3.38;1.70;;;;;;;;;;4989592;28;20518;-64
2023/10/24 09:52:07;;;;;;;4.35;1.52;;;;;;;;;;4985776;28;20137;-64
2023/10/24 09:54:32;;;;;;;2.25;1.25;;;;;;;;;;4985377;28;20121;-64
2023/10/24 09:56:58;;;;;;;2.93;1.53;;;;;;;;;;4981784;28;20947;-63
2023/10/24 09:59:24;;;;;;;3.58;1.38;;;;;;;;;;4977428;28;20669;-64
2023/10/24 10:01:50;;;;;;;5.10;1.40;;;;;;;;;;4981574;28;20486;-64
2023/10/24 10:04:15;;;;;;;3.97;1.33;;;;;;;;;;4976575;28;20025;-64
2023/10/24 10:06:41;;;;;;;2.75;1.52;;;;;;;;;;4992820;28;20045;-64
2023/10/24 10:09:08;;;;;;;3.50;1.92;;;;;;;;;;4978591;28;20492;-64
2023/10/24 10:11:33;;;;;;;2.70;1.35;;;;;;;;;;4991229;28;20038;-63
2023/10/24 10:14:13;;;;;;;2.72;1.33;;;;;;;;;;4997682;28;20080;-65
2023/10/24 10:16:44;;;;;;;4.32;1.63;;;;;;;;;;4982438;28;20838;-65
2023/10/24 10:19:18;;;;;;;3.50;1.60;;;;;;;;;;4988996;28;20084;-65
2023/10/24 10:22:13;;;;;;;3.08;1.75;;;;;;;;;;4969791;28;20085;-65
2023/10/24 10:24:55;;;;;;;4.90;1.95;;;;;;;;;;4995910;28;20018;-64
2023/10/24 10:27:20;;;;;;;3.83;1.42;;;;;;;;;;5001191;28;20116;-65
2023/10/24 10:29:46;;;;;;;4.93;1.70;;;;;;;;;;4989461;28;20803;-65
2023/10/24 10:32:11;;;;;;;4.05;2.08;;;;;;;;;;4996020;28;20396;-64
2023/10/24 10:34:37;;;;;;;4.23;1.67;;;;;;;;;;4969163;28;20390;-65
2023/10/24 10:37:02;;;;;;;2.90;1.50;;;;;;;;;;4976581;28;21200;-65
2023/10/24 10:39:29;;;;;;;3.80;1.83;;;;;;;;;;4979064;28;20044;-67
2023/10/24 10:41:54;;;;;;;3.03;1.70;;;;;;;;;;4953927;28;21172;-66
2023/10/24 10:44:33;;;;;;;4.05;2.22;;;;;;;;;;4970771;28;20026;-67
2023/10/24 10:46:59;;;;;;;3.55;1.70;;;;;;;;;;4971989;28;20034;-67
2023/10/24 10:49:26;;;;;;;4.55;1.92;;;;;;;;;;4970833;28;20022;-67
2023/10/24 10:51:51;;;;;;;3.25;1.88;;;;;;;;;;4971827;28;20298;-68
2023/10/24 10:54:21;;;;;;;4.75;2.67;;;;;;;;;;4972905;28;20050;-74
2023/10/24 10:56:47;;;;;;;3.60;2.20;;;;;;;;;;4973147;28;20195;-69
2023/10/24 10:59:27;;;;;;;3.75;2.45;;;;;;;;;;4969185;28;20022;-73
2023/10/24 11:02:04;;;;;;;3.28;1.92;;;;;;;;;;4971291;28;20029;-76
2023/10/24 11:04:30;;;;;;;3.35;1.98;;;;;;;;;;4969624;28;20850;-66
2023/10/24 11:06:57;;;;;;;3.88;2.20;;;;;;;;;;4970002;28;20018;-62
2023/10/24 11:09:26;;;;;;;3.92;2.05;;;;;;;;;;4970601;28;20174;-67
2023/10/24 11:12:10;;;;;;;3.88;2.30;;;;;;;;;;4972218;28;20030;-65
2023/10/24 11:14:36;;;;;;;3.92;2.10;;;;;;;;;;4972244;28;20564;-68
2023/10/24 11:17:01;;;;;;;3.40;1.90;;;;;;;;;;4971713;28;20029;-67
2023/10/24 11:19:28;;;;;;;3.40;2.07;;;;;;;;;;4971766;28;20017;-65
2023/10/24 11:21:54;;;;;;;3.45;2.05;;;;;;;;;;4964031;28;21186;-65
2023/10/24 11:24:20;;;;;;;3.63;2.35;;;;;;;;;;4971058;28;20080;-62
2023/10/24 11:26:46;;;;;;;3.55;2.22;;;;;;;;;;4970412;28;20041;-62
2023/10/24 11:29:13;;;;;;;7.68;2.10;;;;;;;;;;4972212;28;20089;-63
2023/10/24 11:31:38;;;;;;;3.53;2.05;;;;;;;;;;4958233;28;20034;-64
2023/10/24 11:34:03;;;;;;;2.92;1.90;;;;;;;;;;4968378;28;20037;-65
2023/10/24 11:36:29;;;;;;;2.65;1.65;;;;;;;;;;4965113;28;20775;-66
2023/10/24 11:38:55;;;;;;;3.03;1.90;;;;;;;;;;4970817;28;20021;-67
2023/10/24 11:41:20;;;;;;;3.80;1.70;;;;;;;;;;4970592;28;20291;-66
2023/10/24 11:43:47;;;;;;;2.88;1.67;;;;;;;;;;4970571;28;20551;-67
2023/10/24 11:46:13;;;;;;;3.88;1.90;;;;;;;;;;4972980;28;20084;-68
2023/10/24 11:48:38;;;;;;;2.95;1.73;;;;;;;;;;4964491;28;20173;-68
2023/10/24 11:51:03;;;;;;;2.90;1.52;;;;;;;;;;4966051;28;20915;-67
2023/10/24 11:53:29;;;;;;;4.85;1.15;;;;;;;;;;4970770;28;20033;-68
2023/10/24 11:55:55;;;;;;;4.57;1.27;;;;;;;;;;4970194;28;20044;-68
2023/10/24 11:58:20;;;;;;;6.15;1.25;;;;;;;;;;4970340;28;20220;-67
2023/10/24 12:00:45;;;;;;;2.53;1.25;;;;;;;;;;4970917;28;20030;-67
2023/10/24 12:03:11;;;;;;;3.00;1.17;;;;;;;;;;4969835;28;20128;-67
2023/10/24 12:05:38;;;;;;;3.30;1.40;;;;;;;;;;4972564;28;20030;-66
2023/10/24 12:08:04;;;;;;;3.05;1.48;;;;;;;;;;4960711;28;20891;-66
2023/10/24 12:10:30;;;;;;;3.95;1.45;;;;;;;;;;4958192;28;20014;-66
2023/10/24 12:12:57;;;;;;;2.53;1.30;;;;;;;;;;4965671;28;20088;-67
2023/10/24 12:15:23;;;;;;;3.00;1.75;;;;;;;;;;4964982;28;20030;-67
2023/10/24 12:17:50;;;;;;;2.70;1.25;;;;;;;;;;4971620;28;20041;-66
2023/10/24 12:20:15;;;;;;;3.33;1.55;;;;;;;;;;4969476;28;20167;-67
2023/10/24 12:22:43;;;;;;;3.15;1.63;;;;;;;;;;4968106;28;20104;-67
2023/10/24 12:25:08;;;;;;;4.18;2.22;;;;;;;;;;4971206;28;20887;-66
2023/10/24 12:27:34;;;;;;;3.35;1.70;;;;;;;;;;4970545;28;20053;-66
2023/10/24 12:29:59;;;;;;;3.75;1.77;;;;;;;;;;4969672;28;20037;-65
2023/10/24 12:32:24;;;;;;;3.53;1.70;;;;;;;;;;4968640;28;20927;-62
2023/10/24 12:34:49;;;;;;;2.43;1.40;;;;;;;;;;4965382;28;20918;-66
2023/10/24 12:37:15;;;;;;;3.13;1.60;;;;;;;;;;4963003;28;21150;-65
2023/10/24 12:39:40;;;;;;;3.47;2.10;;;;;;;;;;4973995;28;21241;-65
2023/10/24 12:42:05;;;;;;;2.45;1.27;;;;;;;;;;4968178;28;20331;-66
2023/10/24 12:44:30;;;;;;;2.30;1.00;;;;;;;;;;4971013;28;20022;-64
2023/10/24 12:46:56;;;;;;;2.10;0.93;;;;;;;;;;4969808;28;20816;-66
2023/10/24 12:49:21;;;;;;;2.70;1.20;;;;;;;;;;4968811;28;21246;-65
2023/10/24 12:51:46;;;;;;;2.25;0.88;;;;;;;;;;4971237;28;20030;-64
2023/10/24 12:54:11;;;;;;;2.72;1.30;;;;;;;;;;4971052;28;20029;-64
2023/10/24 12:56:37;;;;;;;2.13;1.00;;;;;;;;;;4968050;28;20088;-65
2023/10/24 12:59:03;;;;;;;2.15;1.00;;;;;;;;;;4969257;28;20276;-65
2023/10/24 13:01:29;;;;;;;1.88;0.88;;;;;;;;;;4969542;28;20810;-66
2023/10/24 13:03:54;;;;;;;2.35;0.80;;;;;;;;;;4968478;28;20830;-65
2023/10/24 13:06:19;;;;;;;1.57;0.80;;;;;;;;;;4970352;28;20018;-65
2023/10/24 13:08:45;;;;;;;1.53;0.70;;;;;;;;;;4969333;28;21162;-65
2023/10/24 13:11:10;;;;;;;2.13;0.90;;;;;;;;;;4963637;28;21157;-65
2023/10/24 13:13:35;;;;;;;2.63;0.70;;;;;;;;;;4968186;28;20015;-65
2023/10/24 13:16:01;;;;;;;1.65;0.60;;;;;;;;;;4968008;28;20293;-67
2023/10/24 13:18:26;;;;;;;1.90;0.80;;;;;;;;;;4963189;28;20022;-65
2023/10/24 13:20:51;;;;;;;1.23;0.60;;;;;;;;;;4970247;28;20399;-65
2023/10/24 13:23:16;;;;;;;1.70;0.43;;;;;;;;;;4971093;28;20276;-65
2023/10/24 13:25:41;;;;;;;1.60;0.67;;;;;;;;;;4967421;28;20276;-65
2023/10/24 13:28:07;;;;;;;0.70;0.40;;;;;;;;;;4970130;28;20282;-65
2023/10/24 13:30:32;;;;;;;0.73;0.43;;;;;;;;;;4964106;28;20304;-65
2023/10/24 13:32:57;;;;;;;1.33;0.57;;;;;;;;;;4966110;28;20273;-65
2023/10/24 13:35:22;;;;;;;1.43;0.47;;;;;;;;;;4966945;28;20269;-68
2023/10/24 13:37:48;;;;;;;0.80;0.40;;;;;;;;;;4965975;28;20285;-67
2023/10/24 13:40:13;;;;;;;2.22;0.63;;;;;;;;;;4967959;28;20133;-67
2023/10/24 13:42:38;;;;;;;0.98;0.30;;;;;;;;;;4965214;28;20085;-67
2023/10/24 13:45:04;;;;;;;1.00;0.40;;;;;;;;;;4969295;28;20030;-66
2023/10/24 13:47:29;;;;;;;1.30;0.43;;;;;;;;;;4968137;28;20026;-67
2023/10/24 13:49:54;;;;;;;0.95;0.47;;;;;;;;;;4965556;28;20036;-65
2023/10/24 13:52:20;;;;;;;3.03;0.60;;;;;;;;;;4967313;28;20026;-65
2023/10/24 13:54:46;;;;;;;1.98;0.60;;;;;;;;;;4965380;28;21047;-65
2023/10/24 13:57:12;;;;;;;2.20;0.40;;;;;;;;;;4965844;28;20026;-65
2023/10/24 13:59:37;;;;;;;1.97;0.67;;;;;;;;;;4960241;28;20072;-65
2023/10/24 14:02:02;;;;;;;1.40;0.47;;;;;;;;;;4967059;28;20276;-65
2023/10/24 14:04:27;;;;;;;1.23;0.50;;;;;;;;;;4962302;28;20089;-65
2023/10/24 14:06:54;;;;;;;1.30;0.30;;;;;;;;;;4964905;28;20277;-65
2023/10/24 14:09:20;;;;;;;1.73;0.70;;;;;;;;;;4958968;28;20029;-65
2023/10/24 14:11:45;;;;;;;1.47;0.70;;;;;;;;;;4967192;28;20037;-64
2023/10/24 14:14:11;;;;;;;1.50;0.60;;;;;;;;;;4967995;28;20388;-66
2023/10/24 14:16:37;;;;;;;2.00;0.80;;;;;;;;;;4968290;28;20032;-65
2023/10/24 14:19:02;;;;;;;2.03;0.68;;;;;;;;;;4969060;28;20026;-66
2023/10/24 14:21:27;;;;;;;3.67;0.90;;;;;;;;;;4971674;28;20961;-64
2023/10/24 14:23:52;;;;;;;3.65;0.80;;;;;;;;;;4972381;28;20029;-65
2023/10/24 14:26:18;;;;;;;2.13;0.70;;;;;;;;;;4973156;28;20057;-66
2023/10/24 14:28:43;;;;;;;1.80;0.80;;;;;;;;;;4974423;28;20392;-65
2023/10/24 14:31:08;;;;;;;2.03;1.00;;;;;;;;;;4972545;28;20133;-66
2023/10/24 14:33:33;;;;;;;1.83;0.83;;;;;;;;;;4973156;28;21001;-66
2023/10/24 14:35:59;;;;;;;2.40;1.17;;;;;;;;;;4972915;28;20312;-65